Time;durP1;ratioP1;P1;durP2;ratioP2;P2;SDS_P1;SDS_P2;PMS_P1;PMS_P2;Temp;Humidity;BMP_temperature;BMP_pressure;BME280_temperature;BME280_humidity;BME280_pressure;Samples;Min_cycle;Max_cycle;Signal;HPM_P1;HPM_P2
2021/03/19 00:02:13;;;;;;;16.53;11.97;;;;;;;;;;5040295;28;20174;-81
2021/03/19 00:04:39;;;;;;;15.73;11.50;;;;;;;;;;5023243;28;20265;-81
2021/03/19 00:07:05;;;;;;;15.13;11.40;;;;;;;;;;5022872;28;20182;-81
2021/03/19 00:09:31;;;;;;;17.47;11.13;;;;;;;;;;5023828;28;20182;-81
2021/03/19 00:11:57;;;;;;;17.43;11.40;;;;;;;;;;5023172;28;20254;-81
2021/03/19 00:14:23;;;;;;;14.57;10.40;;;;;;;;;;5022813;28;20206;-82
2021/03/19 00:16:49;;;;;;;16.20;10.63;;;;;;;;;;5021662;28;20635;-80
2021/03/19 00:19:15;;;;;;;15.20;10.67;;;;;;;;;;5020937;28;20598;-80
2021/03/19 00:21:41;;;;;;;15.90;10.00;;;;;;;;;;5037511;28;20216;-80
2021/03/19 00:24:07;;;;;;;13.23;9.47;;;;;;;;;;5018420;28;20291;-82
2021/03/19 00:26:33;;;;;;;14.30;10.10;;;;;;;;;;5018524;28;20189;-82
2021/03/19 00:28:59;;;;;;;15.80;9.80;;;;;;;;;;5018192;28;20176;-81
2021/03/19 00:31:25;;;;;;;17.53;10.23;;;;;;;;;;5016068;28;20192;-81
2021/03/19 00:33:51;;;;;;;13.40;9.97;;;;;;;;;;5034984;28;20578;-80
2021/03/19 00:36:17;;;;;;;15.20;9.70;;;;;;;;;;5017005;28;20297;-80
2021/03/19 00:38:43;;;;;;;12.43;9.30;;;;;;;;;;5033732;28;20176;-81
2021/03/19 00:41:09;;;;;;;15.17;9.93;;;;;;;;;;5018690;28;20745;-82
2021/03/19 00:43:35;;;;;;;16.17;9.27;;;;;;;;;;5034588;28;20244;-82
2021/03/19 00:46:01;;;;;;;14.97;9.90;;;;;;;;;;5035540;28;20188;-84
2021/03/19 00:48:27;;;;;;;14.10;9.83;;;;;;;;;;5034348;28;20632;-84
2021/03/19 00:50:54;;;;;;;15.97;10.13;;;;;;;;;;5016782;28;20200;-84
2021/03/19 00:53:20;;;;;;;12.73;9.43;;;;;;;;;;5017451;28;20585;-82
2021/03/19 00:55:46;;;;;;;12.83;9.17;;;;;;;;;;5017390;28;20186;-83
2021/03/19 00:58:12;;;;;;;12.13;9.20;;;;;;;;;;5041007;28;20185;-81
2021/03/19 01:00:39;;;;;;;17.53;10.03;;;;;;;;;;5034101;28;20680;-80
2021/03/19 01:03:05;;;;;;;13.60;9.33;;;;;;;;;;5015968;28;20220;-81
2021/03/19 01:05:34;;;;;;;15.07;9.40;;;;;;;;;;5019628;28;20193;-82
2021/03/19 01:08:01;;;;;;;10.60;9.23;;;;;;;;;;5017265;28;20273;-80
2021/03/19 01:10:31;;;;;;;12.97;9.33;;;;;;;;;;5017153;28;20178;-83
2021/03/19 01:12:57;;;;;;;14.20;9.13;;;;;;;;;;5041200;28;20596;-82
2021/03/19 01:15:23;;;;;;;14.80;10.17;;;;;;;;;;5043988;28;20681;-82
2021/03/19 01:17:49;;;;;;;11.83;8.67;;;;;;;;;;5026282;28;20187;-82
2021/03/19 01:20:15;;;;;;;15.77;9.43;;;;;;;;;;5041283;28;20237;-80
2021/03/19 01:22:41;;;;;;;15.27;9.73;;;;;;;;;;5025770;28;20723;-81
2021/03/19 01:25:07;;;;;;;15.77;10.17;;;;;;;;;;5044999;28;20254;-81
2021/03/19 01:27:33;;;;;;;14.50;9.20;;;;;;;;;;5028523;28;20648;-82
2021/03/19 01:30:00;;;;;;;17.10;9.30;;;;;;;;;;5032480;28;20178;-81
2021/03/19 01:32:26;;;;;;;13.60;9.40;;;;;;;;;;5032900;28;20189;-81
2021/03/19 01:34:52;;;;;;;15.17;9.47;;;;;;;;;;5032359;28;20305;-81
2021/03/19 01:37:17;;;;;;;13.50;9.17;;;;;;;;;;5026818;28;20631;-80
2021/03/19 01:39:43;;;;;;;15.47;9.40;;;;;;;;;;5052845;28;20177;-81
2021/03/19 01:42:10;;;;;;;14.50;8.90;;;;;;;;;;5050450;28;20174;-82
2021/03/19 01:44:42;;;;;;;15.03;9.80;;;;;;;;;;5033149;28;20224;-82
2021/03/19 01:47:26;;;;;;;13.27;9.33;;;;;;;;;;5053364;28;20181;-81
2021/03/19 01:50:11;;;;;;;15.67;9.53;;;;;;;;;;5049442;28;20179;-82
2021/03/19 01:52:56;;;;;;;13.70;10.23;;;;;;;;;;5073427;28;20178;-83
2021/03/19 01:55:40;;;;;;;16.73;9.90;;;;;;;;;;5046419;28;20173;-80
2021/03/19 01:58:25;;;;;;;17.33;10.00;;;;;;;;;;5039292;28;20196;-83
2021/03/19 02:01:10;;;;;;;15.03;9.53;;;;;;;;;;5037889;28;20213;-80
2021/03/19 02:03:54;;;;;;;17.53;10.33;;;;;;;;;;5040640;28;20200;-83
2021/03/19 02:06:38;;;;;;;15.33;9.57;;;;;;;;;;5039958;28;20174;-82
2021/03/19 02:09:23;;;;;;;17.53;9.60;;;;;;;;;;5038130;28;20179;-79
2021/03/19 02:12:08;;;;;;;15.50;9.60;;;;;;;;;;5039132;28;20260;-81
2021/03/19 02:14:53;;;;;;;15.83;10.07;;;;;;;;;;5033684;28;20205;-80
2021/03/19 02:17:37;;;;;;;15.13;10.23;;;;;;;;;;5035104;28;20202;-80
2021/03/19 02:20:22;;;;;;;16.37;10.90;;;;;;;;;;5033556;28;20578;-82
2021/03/19 02:23:07;;;;;;;15.40;10.33;;;;;;;;;;5033207;28;20644;-82
2021/03/19 02:25:52;;;;;;;19.33;10.70;;;;;;;;;;5033375;28;20178;-80
2021/03/19 02:28:36;;;;;;;18.67;11.00;;;;;;;;;;5039706;28;20171;-80
2021/03/19 02:31:12;;;;;;;15.70;11.10;;;;;;;;;;5040814;28;20182;-80
2021/03/19 02:33:39;;;;;;;15.43;11.23;;;;;;;;;;5038138;28;20205;-83
2021/03/19 02:36:05;;;;;;;18.87;11.37;;;;;;;;;;5021643;28;20189;-83
2021/03/19 02:38:31;;;;;;;19.50;11.50;;;;;;;;;;5021186;28;20278;-80
2021/03/19 02:40:57;;;;;;;19.57;11.43;;;;;;;;;;5037075;28;20704;-82
2021/03/19 02:43:23;;;;;;;16.93;10.63;;;;;;;;;;5021892;28;20217;-80
2021/03/19 02:45:50;;;;;;;16.20;10.37;;;;;;;;;;5038135;28;20188;-80
2021/03/19 02:48:16;;;;;;;14.57;10.13;;;;;;;;;;5020629;28;20190;-81
2021/03/19 02:50:42;;;;;;;17.23;10.40;;;;;;;;;;5037950;28;20178;-80
2021/03/19 02:53:14;;;;;;;16.80;9.97;;;;;;;;;;5038965;28;20202;-83
2021/03/19 02:55:40;;;;;;;14.83;10.13;;;;;;;;;;5021904;28;20189;-83
2021/03/19 02:58:06;;;;;;;13.87;9.40;;;;;;;;;;5021330;28;20554;-81
2021/03/19 03:00:32;;;;;;;14.53;9.20;;;;;;;;;;5038037;28;20208;-81
2021/03/19 03:02:58;;;;;;;14.47;9.57;;;;;;;;;;5021884;28;20179;-82
2021/03/19 03:05:24;;;;;;;18.10;10.00;;;;;;;;;;5037134;28;20214;-82
2021/03/19 03:07:50;;;;;;;16.77;10.10;;;;;;;;;;5020622;28;20633;-82
2021/03/19 03:10:17;;;;;;;14.67;9.50;;;;;;;;;;5020809;28;20208;-81
2021/03/19 03:12:43;;;;;;;14.97;9.37;;;;;;;;;;5037034;28;20186;-81
2021/03/19 03:15:10;;;;;;;14.70;9.07;;;;;;;;;;5020180;28;20190;-81
2021/03/19 03:17:36;;;;;;;14.60;8.73;;;;;;;;;;5020392;28;20204;-82
2021/03/19 03:20:04;;;;;;;13.97;9.00;;;;;;;;;;5019840;28;20198;-82
2021/03/19 03:22:32;;;;;;;15.07;9.10;;;;;;;;;;5037826;28;20170;-82
2021/03/19 03:24:58;;;;;;;15.10;8.87;;;;;;;;;;5038349;28;20229;-81
2021/03/19 03:27:24;;;;;;;14.63;9.10;;;;;;;;;;5037461;28;20175;-81
2021/03/19 03:29:50;;;;;;;15.70;9.00;;;;;;;;;;5020902;28;20183;-81
2021/03/19 03:32:16;;;;;;;13.73;8.83;;;;;;;;;;5036853;28;20224;-81
2021/03/19 03:34:42;;;;;;;14.50;8.93;;;;;;;;;;5036441;28;20209;-80
2021/03/19 03:37:08;;;;;;;12.10;8.33;;;;;;;;;;5036055;28;20171;-83
2021/03/19 03:39:34;;;;;;;14.83;9.30;;;;;;;;;;5019863;28;20248;-83
2021/03/19 03:42:01;;;;;;;11.63;8.67;;;;;;;;;;5019304;28;20217;-83
2021/03/19 03:44:27;;;;;;;13.17;8.40;;;;;;;;;;5019311;28;20581;-82
2021/03/19 03:46:54;;;;;;;14.03;9.13;;;;;;;;;;5019696;28;20768;-83
2021/03/19 03:49:19;;;;;;;11.53;8.00;;;;;;;;;;5020287;28;20181;-81
2021/03/19 03:51:45;;;;;;;12.93;7.83;;;;;;;;;;5037233;28;20236;-82
2021/03/19 03:54:12;;;;;;;12.63;8.47;;;;;;;;;;5036506;28;20205;-82
2021/03/19 03:56:38;;;;;;;11.80;7.87;;;;;;;;;;5036382;28;20635;-80
2021/03/19 03:59:06;;;;;;;12.40;7.50;;;;;;;;;;5035260;28;20228;-82
2021/03/19 04:01:33;;;;;;;12.80;7.87;;;;;;;;;;5035980;28;20214;-80
2021/03/19 04:03:59;;;;;;;13.07;7.50;;;;;;;;;;5036423;28;20283;-80
2021/03/19 04:06:25;;;;;;;10.87;7.43;;;;;;;;;;5019960;28;20695;-82
2021/03/19 04:08:51;;;;;;;9.87;7.60;;;;;;;;;;5035159;28;20181;-81
2021/03/19 04:11:18;;;;;;;11.77;7.03;;;;;;;;;;5019571;28;20192;-81
2021/03/19 04:13:44;;;;;;;11.20;7.37;;;;;;;;;;5019038;28;20246;-81
2021/03/19 04:16:10;;;;;;;9.30;7.57;;;;;;;;;;5035797;28;20182;-81
2021/03/19 04:18:36;;;;;;;13.17;7.37;;;;;;;;;;5034891;28;20639;-80
2021/03/19 04:21:07;;;;;;;9.63;6.63;;;;;;;;;;5035069;28;20219;-83
2021/03/19 04:23:33;;;;;;;15.20;7.63;;;;;;;;;;5020348;28;20250;-84
2021/03/19 04:25:59;;;;;;;10.67;7.90;;;;;;;;;;5019396;28;20237;-82
2021/03/19 04:28:34;;;;;;;12.90;7.57;;;;;;;;;;5035143;28;20228;-82
2021/03/19 04:31:00;;;;;;;13.37;7.80;;;;;;;;;;5035521;28;20314;-82
2021/03/19 04:33:26;;;;;;;13.40;7.63;;;;;;;;;;5019524;28;20206;-82
2021/03/19 04:36:16;;;;;;;10.40;7.07;;;;;;;;;;5036478;28;20177;-80
2021/03/19 04:38:43;;;;;;;12.20;7.50;;;;;;;;;;5031431;28;20741;-82
2021/03/19 04:41:09;;;;;;;10.83;6.13;;;;;;;;;;5037129;28;20275;-81
2021/03/19 04:43:35;;;;;;;11.90;6.93;;;;;;;;;;5036567;28;20217;-80
2021/03/19 04:46:01;;;;;;;9.80;6.60;;;;;;;;;;5016060;28;20183;-82
2021/03/19 04:48:27;;;;;;;12.13;7.10;;;;;;;;;;5032625;28;20200;-80
2021/03/19 04:50:53;;;;;;;10.20;7.50;;;;;;;;;;5016591;28;20196;-81
2021/03/19 04:53:19;;;;;;;12.50;7.10;;;;;;;;;;5015617;28;20201;-82
2021/03/19 04:55:45;;;;;;;9.80;6.80;;;;;;;;;;5032543;28;20270;-80
2021/03/19 04:58:11;;;;;;;10.47;7.43;;;;;;;;;;5016078;28;20614;-80
2021/03/19 05:00:37;;;;;;;12.23;7.57;;;;;;;;;;5015880;28;20199;-80
2021/03/19 05:03:03;;;;;;;8.83;7.07;;;;;;;;;;5031873;28;20213;-79
2021/03/19 05:05:30;;;;;;;9.53;7.63;;;;;;;;;;5032217;28;20252;-81
2021/03/19 05:07:56;;;;;;;12.30;7.60;;;;;;;;;;5015600;28;20743;-81
2021/03/19 05:10:23;;;;;;;11.27;7.37;;;;;;;;;;5032368;28;20186;-80
2021/03/19 05:12:49;;;;;;;10.50;7.37;;;;;;;;;;5036171;28;20564;-80
2021/03/19 05:15:15;;;;;;;8.97;6.63;;;;;;;;;;5037311;28;20262;-80
2021/03/19 05:17:41;;;;;;;9.27;6.70;;;;;;;;;;5036152;28;20284;-80
2021/03/19 05:20:07;;;;;;;10.30;6.77;;;;;;;;;;5019233;28;20209;-80
2021/03/19 05:22:33;;;;;;;9.30;7.23;;;;;;;;;;5019125;28;20179;-79
2021/03/19 05:24:59;;;;;;;8.77;7.10;;;;;;;;;;5019063;28;20203;-81
2021/03/19 05:27:26;;;;;;;9.30;7.43;;;;;;;;;;5018950;28;20704;-80
2021/03/19 05:29:55;;;;;;;11.10;6.97;;;;;;;;;;5035768;28;20293;-80
2021/03/19 05:32:21;;;;;;;10.13;7.00;;;;;;;;;;5019383;28;20182;-80
2021/03/19 05:34:47;;;;;;;9.70;6.93;;;;;;;;;;5019113;28;20703;-79
2021/03/19 05:37:13;;;;;;;12.00;7.37;;;;;;;;;;5044485;28;20650;-81
2021/03/19 05:39:39;;;;;;;11.27;7.40;;;;;;;;;;5036218;28;20183;-82
2021/03/19 05:42:12;;;;;;;10.20;7.47;;;;;;;;;;5048603;28;20209;-80
2021/03/19 05:44:38;;;;;;;10.33;6.90;;;;;;;;;;5049357;28;20216;-80
2021/03/19 05:47:04;;;;;;;9.97;7.00;;;;;;;;;;5017850;28;20181;-84
2021/03/19 05:49:31;;;;;;;11.87;7.30;;;;;;;;;;5023124;28;20192;-79
2021/03/19 05:51:58;;;;;;;9.50;7.03;;;;;;;;;;5038987;28;20558;-79
2021/03/19 05:54:29;;;;;;;9.77;7.27;;;;;;;;;;5034974;28;20582;-80
2021/03/19 05:57:15;;;;;;;10.50;7.20;;;;;;;;;;5034609;28;20216;-79
2021/03/19 05:59:44;;;;;;;10.60;7.20;;;;;;;;;;5018577;28;20190;-79
2021/03/19 06:02:17;;;;;;;11.83;7.37;;;;;;;;;;5034788;28;20586;-79
2021/03/19 06:04:44;;;;;;;9.73;6.67;;;;;;;;;;5018302;28;20671;-82
2021/03/19 06:07:09;;;;;;;11.40;7.57;;;;;;;;;;5019851;28;20821;-83
2021/03/19 06:09:37;;;;;;;10.47;7.13;;;;;;;;;;5019345;28;20185;-79
2021/03/19 06:12:08;;;;;;;11.73;7.60;;;;;;;;;;5017721;28;20189;-80
2021/03/19 06:14:42;;;;;;;10.10;7.37;;;;;;;;;;5053776;28;20215;-80
2021/03/19 06:17:09;;;;;;;8.90;7.17;;;;;;;;;;5054657;28;20699;-83
2021/03/19 06:19:36;;;;;;;9.43;6.87;;;;;;;;;;5054393;28;20261;-80
2021/03/19 06:22:25;;;;;;;8.53;6.50;;;;;;;;;;5054027;28;20257;-80
2021/03/19 06:25:21;;;;;;;9.83;6.30;;;;;;;;;;5026577;28;20213;-81
2021/03/19 06:27:57;;;;;;;11.00;5.70;;;;;;;;;;5040662;28;20221;-80
2021/03/19 06:30:27;;;;;;;7.20;4.90;;;;;;;;;;5053008;28;20226;-80
2021/03/19 06:33:20;;;;;;;6.47;4.60;;;;;;;;;;5043473;28;20568;-76
2021/03/19 06:35:47;;;;;;;6.40;4.27;;;;;;;;;;5044772;28;20187;-78
2021/03/19 06:38:23;;;;;;;4.77;3.87;;;;;;;;;;5028966;28;20179;-84
2021/03/19 06:40:49;;;;;;;5.87;3.90;;;;;;;;;;5013080;28;20285;-84
2021/03/19 06:43:17;;;;;;;5.17;3.63;;;;;;;;;;5012933;28;20377;-82
2021/03/19 06:45:43;;;;;;;5.70;3.77;;;;;;;;;;5014128;28;20189;-83
2021/03/19 06:48:27;;;;;;;4.60;3.50;;;;;;;;;;5012980;28;20269;-83
2021/03/19 06:50:53;;;;;;;7.47;3.60;;;;;;;;;;5014371;28;20182;-82
2021/03/19 06:53:30;;;;;;;5.17;3.50;;;;;;;;;;5012944;28;20195;-82
2021/03/19 06:56:16;;;;;;;4.60;2.97;;;;;;;;;;5026274;28;20239;-77
2021/03/19 06:58:50;;;;;;;4.40;3.43;;;;;;;;;;5038824;28;20190;-78
2021/03/19 07:01:30;;;;;;;4.47;3.20;;;;;;;;;;5035101;28;20218;-75
2021/03/19 07:04:03;;;;;;;4.20;3.47;;;;;;;;;;5028215;28;20268;-78
2021/03/19 07:06:29;;;;;;;5.60;3.63;;;;;;;;;;5040242;28;20683;-79
2021/03/19 07:08:57;;;;;;;4.23;3.17;;;;;;;;;;5025349;28;20179;-79
2021/03/19 07:11:28;;;;;;;5.03;3.20;;;;;;;;;;5013796;28;20187;-81
2021/03/19 07:14:13;;;;;;;5.60;3.40;;;;;;;;;;4997811;28;20203;-80
2021/03/19 07:16:38;;;;;;;5.33;3.77;;;;;;;;;;5013756;28;20222;-82
2021/03/19 07:19:14;;;;;;;6.93;4.00;;;;;;;;;;5015199;28;20182;-81
2021/03/19 07:21:46;;;;;;;6.47;3.93;;;;;;;;;;4996393;28;20764;-78
2021/03/19 07:24:21;;;;;;;5.77;4.07;;;;;;;;;;5031222;28;20213;-82
2021/03/19 07:26:49;;;;;;;8.53;3.90;;;;;;;;;;5053581;28;20177;-82
2021/03/19 07:29:19;;;;;;;4.63;3.77;;;;;;;;;;5053206;28;20188;-82
2021/03/19 07:31:48;;;;;;;5.73;3.87;;;;;;;;;;5069905;28;20181;-82
2021/03/19 07:34:32;;;;;;;7.10;3.90;;;;;;;;;;5069611;28;20202;-81
2021/03/19 07:37:01;;;;;;;6.93;4.03;;;;;;;;;;5053361;28;20185;-83
2021/03/19 07:39:41;;;;;;;6.27;3.60;;;;;;;;;;5054219;28;20261;-82
2021/03/19 07:42:13;;;;;;;5.57;3.33;;;;;;;;;;5053537;28;20614;-83
2021/03/19 07:44:52;;;;;;;4.43;3.20;;;;;;;;;;5051327;28;20317;-82
2021/03/19 07:47:24;;;;;;;4.77;3.37;;;;;;;;;;5034319;28;20687;-77
2021/03/19 07:49:59;;;;;;;6.37;3.50;;;;;;;;;;5035621;28;20182;-82
2021/03/19 07:52:25;;;;;;;5.13;3.60;;;;;;;;;;5033224;28;20231;-82
2021/03/19 07:54:57;;;;;;;6.73;3.47;;;;;;;;;;5033746;28;20596;-82
2021/03/19 07:57:41;;;;;;;3.53;3.20;;;;;;;;;;5018209;28;20206;-81
2021/03/19 08:00:15;;;;;;;5.90;3.30;;;;;;;;;;5005222;28;20717;-78
2021/03/19 08:02:47;;;;;;;5.23;3.33;;;;;;;;;;5005110;28;20176;-80
2021/03/19 08:05:30;;;;;;;4.60;3.20;;;;;;;;;;5009127;28;20270;-80
2021/03/19 08:08:02;;;;;;;5.07;3.10;;;;;;;;;;5030816;28;20171;-79
2021/03/19 08:10:35;;;;;;;4.53;2.80;;;;;;;;;;5015401;28;20188;-80
2021/03/19 08:13:14;;;;;;;4.77;3.33;;;;;;;;;;5032038;28;20690;-79
2021/03/19 08:15:41;;;;;;;4.53;3.27;;;;;;;;;;5032059;28;20190;-80
2021/03/19 08:18:10;;;;;;;6.27;3.20;;;;;;;;;;5014977;28;20196;-80
2021/03/19 08:20:36;;;;;;;4.63;3.40;;;;;;;;;;5040116;28;20207;-81
2021/03/19 08:23:02;;;;;;;4.30;2.90;;;;;;;;;;5043312;28;20198;-82
2021/03/19 08:25:33;;;;;;;5.07;2.70;;;;;;;;;;5046468;28;20227;-80
2021/03/19 08:28:14;;;;;;;4.70;2.90;;;;;;;;;;5035802;28;20174;-82
2021/03/19 08:30:59;;;;;;;4.93;3.07;;;;;;;;;;5052173;28;20178;-81
2021/03/19 08:33:28;;;;;;;4.93;2.67;;;;;;;;;;5052297;28;20916;-82
2021/03/19 08:35:58;;;;;;;4.17;3.00;;;;;;;;;;5053389;28;20795;-82
2021/03/19 08:38:25;;;;;;;5.10;3.10;;;;;;;;;;5052364;28;20663;-80
2021/03/19 08:41:09;;;;;;;3.57;2.60;;;;;;;;;;5039499;28;20209;-81
2021/03/19 08:43:35;;;;;;;5.00;2.77;;;;;;;;;;5014201;28;20214;-80
2021/03/19 08:46:03;;;;;;;5.43;3.00;;;;;;;;;;5034854;28;20717;-78
2021/03/19 08:48:29;;;;;;;3.97;2.70;;;;;;;;;;5020686;28;20584;-80
2021/03/19 08:50:55;;;;;;;4.33;2.63;;;;;;;;;;5021602;28;20222;-82
2021/03/19 08:53:21;;;;;;;7.20;2.40;;;;;;;;;;5037842;28;20205;-81
2021/03/19 08:55:47;;;;;;;4.37;2.40;;;;;;;;;;5038175;28;20214;-80
2021/03/19 08:58:29;;;;;;;4.37;2.63;;;;;;;;;;5021523;28;20184;-80
2021/03/19 09:00:56;;;;;;;3.63;2.07;;;;;;;;;;5039432;28;20209;-80
2021/03/19 09:03:38;;;;;;;2.63;2.00;;;;;;;;;;5023108;28;20222;-83
2021/03/19 09:06:07;;;;;;;3.93;2.10;;;;;;;;;;5051760;28;20241;-81
2021/03/19 09:08:54;;;;;;;1.93;1.63;;;;;;;;;;5038512;28;20176;-83
2021/03/19 09:11:40;;;;;;;4.73;1.97;;;;;;;;;;5027655;28;20191;-82
2021/03/19 09:14:06;;;;;;;4.13;2.00;;;;;;;;;;5034573;28;20217;-81
2021/03/19 09:16:38;;;;;;;4.53;2.13;;;;;;;;;;5047093;28;20227;-81
2021/03/19 09:19:04;;;;;;;2.30;1.60;;;;;;;;;;5061451;28;20220;-80
2021/03/19 09:21:37;;;;;;;3.90;1.70;;;;;;;;;;5029949;28;20234;-81
2021/03/19 09:24:07;;;;;;;2.97;1.80;;;;;;;;;;5020074;28;20199;-80
2021/03/19 09:26:46;;;;;;;2.93;1.67;;;;;;;;;;5013398;28;20183;-80
2021/03/19 09:29:16;;;;;;;3.20;1.70;;;;;;;;;;5018352;28;20200;-80
2021/03/19 09:31:49;;;;;;;2.93;1.67;;;;;;;;;;5017190;28;20187;-80
2021/03/19 09:34:16;;;;;;;2.10;1.50;;;;;;;;;;5016933;28;20578;-80
2021/03/19 09:37:01;;;;;;;2.73;1.60;;;;;;;;;;5026923;28;20272;-78
2021/03/19 09:39:46;;;;;;;1.40;1.20;;;;;;;;;;5025753;28;20641;-78
2021/03/19 09:42:21;;;;;;;2.47;1.77;;;;;;;;;;5033761;28;20210;-80
2021/03/19 09:44:59;;;;;;;2.57;1.73;;;;;;;;;;5022981;28;20214;-80
2021/03/19 09:47:46;;;;;;;4.43;1.33;;;;;;;;;;5024238;28;20261;-81
2021/03/19 09:50:21;;;;;;;1.80;1.53;;;;;;;;;;5032548;28;20563;-81
2021/03/19 09:52:56;;;;;;;2.60;1.10;;;;;;;;;;5021603;28;20186;-81
2021/03/19 09:55:23;;;;;;;3.37;1.17;;;;;;;;;;5018927;28;20182;-80
2021/03/19 09:57:49;;;;;;;2.50;1.10;;;;;;;;;;5012914;28;20180;-81
2021/03/19 10:00:16;;;;;;;2.57;1.53;;;;;;;;;;5019787;28;20179;-81
2021/03/19 10:02:42;;;;;;;1.40;1.17;;;;;;;;;;5006693;28;20187;-81
2021/03/19 10:05:16;;;;;;;2.50;1.30;;;;;;;;;;4997190;28;20237;-80
2021/03/19 10:07:52;;;;;;;2.03;1.27;;;;;;;;;;5013431;28;20195;-80
2021/03/19 10:10:19;;;;;;;2.27;1.20;;;;;;;;;;5032860;28;20187;-79
2021/03/19 10:12:45;;;;;;;3.73;1.40;;;;;;;;;;5012952;28;20187;-78
2021/03/19 10:15:12;;;;;;;1.40;1.10;;;;;;;;;;5016467;28;20270;-78
2021/03/19 10:17:38;;;;;;;2.17;1.13;;;;;;;;;;5016253;28;20187;-78
2021/03/19 10:20:13;;;;;;;1.73;1.20;;;;;;;;;;5011900;28;20617;-78
2021/03/19 10:22:40;;;;;;;2.70;1.20;;;;;;;;;;5032398;28;20204;-78
2021/03/19 10:25:13;;;;;;;4.60;1.20;;;;;;;;;;5013101;28;20217;-78
2021/03/19 10:27:45;;;;;;;1.20;1.10;;;;;;;;;;5026777;28;20191;-78
2021/03/19 10:30:16;;;;;;;1.63;1.10;;;;;;;;;;5017912;28;20282;-78
2021/03/19 10:32:42;;;;;;;1.50;1.10;;;;;;;;;;5015578;28;20183;-78
2021/03/19 10:35:08;;;;;;;1.97;1.20;;;;;;;;;;5016025;28;20178;-78
2021/03/19 10:37:39;;;;;;;1.53;1.30;;;;;;;;;;5006216;28;20202;-78
2021/03/19 10:40:06;;;;;;;1.90;1.10;;;;;;;;;;5026585;28;20171;-78
2021/03/19 10:42:33;;;;;;;2.83;1.30;;;;;;;;;;5031007;28;20616;-78
2021/03/19 10:45:05;;;;;;;1.50;1.10;;;;;;;;;;5018644;28;20695;-78
2021/03/19 10:47:46;;;;;;;1.00;0.80;;;;;;;;;;5022634;28;20177;-78
2021/03/19 10:50:14;;;;;;;1.40;0.90;;;;;;;;;;5075429;23;20221;-75
2021/03/19 10:52:40;;;;;;;1.47;1.00;;;;;;;;;;5066682;28;20245;-75
2021/03/19 10:55:07;;;;;;;1.43;1.00;;;;;;;;;;5058111;28;20731;-76
2021/03/19 10:57:35;;;;;;;1.30;1.17;;;;;;;;;;5070200;28;20176;-75
2021/03/19 11:00:01;;;;;;;1.97;1.20;;;;;;;;;;5055711;28;20211;-75
2021/03/19 11:02:28;;;;;;;1.20;1.10;;;;;;;;;;5065234;28;20178;-75
2021/03/19 11:05:00;;;;;;;2.67;1.30;;;;;;;;;;5059997;28;20322;-76
2021/03/19 11:07:26;;;;;;;1.97;1.00;;;;;;;;;;5068333;28;20181;-75
2021/03/19 11:10:12;;;;;;;3.20;1.00;;;;;;;;;;5067692;28;20298;-75
2021/03/19 11:12:46;;;;;;;1.23;0.83;;;;;;;;;;5052293;28;20243;-76
2021/03/19 11:15:14;;;;;;;1.50;0.90;;;;;;;;;;5071613;28;20188;-75
2021/03/19 11:17:41;;;;;;;2.20;0.90;;;;;;;;;;5072955;28;20243;-74
2021/03/19 11:20:07;;;;;;;1.10;0.90;;;;;;;;;;5055518;28;20234;-75
2021/03/19 11:22:34;;;;;;;1.47;0.90;;;;;;;;;;5071798;28;20194;-74
2021/03/19 11:25:19;;;;;;;2.00;0.90;;;;;;;;;;5055394;28;20187;-75
2021/03/19 11:27:45;;;;;;;1.70;0.70;;;;;;;;;;5063936;28;20186;-75
2021/03/19 11:30:12;;;;;;;2.23;1.00;;;;;;;;;;5052056;28;20592;-76
2021/03/19 11:32:38;;;;;;;1.83;0.90;;;;;;;;;;5051825;28;20188;-75
2021/03/19 11:35:16;;;;;;;1.70;1.00;;;;;;;;;;5036521;28;20231;-76
2021/03/19 11:37:45;;;;;;;1.40;0.90;;;;;;;;;;5051525;28;20179;-75
2021/03/19 11:40:16;;;;;;;3.23;0.70;;;;;;;;;;5051431;28;20203;-75
2021/03/19 11:42:46;;;;;;;1.90;0.80;;;;;;;;;;5051680;28;20221;-75
2021/03/19 11:45:12;;;;;;;1.10;0.80;;;;;;;;;;5055947;28;20178;-75
2021/03/19 11:47:39;;;;;;;1.23;1.00;;;;;;;;;;5072609;28;20178;-75
2021/03/19 11:50:08;;;;;;;2.03;0.70;;;;;;;;;;5054724;28;20303;-75
2021/03/19 11:52:34;;;;;;;1.00;0.80;;;;;;;;;;5071192;28;20175;-75
2021/03/19 11:55:02;;;;;;;1.10;0.90;;;;;;;;;;5054924;28;20179;-76
2021/03/19 11:57:28;;;;;;;1.13;0.90;;;;;;;;;;5054815;28;20559;-75
2021/03/19 11:59:55;;;;;;;1.90;0.90;;;;;;;;;;5055178;28;20214;-75
2021/03/19 12:02:25;;;;;;;1.43;0.70;;;;;;;;;;5054494;28;20214;-75
2021/03/19 12:04:51;;;;;;;1.90;1.00;;;;;;;;;;5071511;28;20185;-76
2021/03/19 12:07:17;;;;;;;1.40;0.90;;;;;;;;;;5071051;28;20171;-75
2021/03/19 12:09:44;;;;;;;1.27;0.80;;;;;;;;;;5072174;28;20208;-75
2021/03/19 12:12:13;;;;;;;1.43;0.80;;;;;;;;;;5072337;28;20181;-75
2021/03/19 12:14:39;;;;;;;2.47;1.00;;;;;;;;;;5070830;28;20271;-75
2021/03/19 12:17:05;;;;;;;1.20;1.00;;;;;;;;;;5071478;28;20219;-75
2021/03/19 12:19:31;;;;;;;1.10;0.73;;;;;;;;;;5070729;28;20274;-76
2021/03/19 12:21:57;;;;;;;0.93;0.90;;;;;;;;;;5063797;28;20208;-76
2021/03/19 12:24:23;;;;;;;1.83;0.90;;;;;;;;;;5063284;28;20181;-75
2021/03/19 12:26:49;;;;;;;1.23;0.87;;;;;;;;;;5056144;28;20193;-75
2021/03/19 12:29:15;;;;;;;1.80;1.00;;;;;;;;;;5050650;28;20194;-75
2021/03/19 12:31:41;;;;;;;1.17;0.90;;;;;;;;;;5066530;28;20192;-75
2021/03/19 12:34:07;;;;;;;2.00;0.90;;;;;;;;;;5050800;28;20212;-75
2021/03/19 12:36:33;;;;;;;1.63;0.90;;;;;;;;;;5065149;28;20188;-75
2021/03/19 12:38:59;;;;;;;1.37;1.00;;;;;;;;;;5052426;28;20210;-75
2021/03/19 12:41:25;;;;;;;1.80;0.90;;;;;;;;;;5055729;28;20219;-76
2021/03/19 12:43:51;;;;;;;1.10;1.00;;;;;;;;;;5071839;28;20234;-75
2021/03/19 12:46:17;;;;;;;1.10;0.80;;;;;;;;;;5070730;28;20175;-75
2021/03/19 12:48:43;;;;;;;0.97;0.80;;;;;;;;;;5053290;28;20286;-75
2021/03/19 12:51:09;;;;;;;1.20;0.93;;;;;;;;;;5070627;28;20563;-75
2021/03/19 12:53:35;;;;;;;1.60;0.90;;;;;;;;;;5053746;28;20181;-74
2021/03/19 12:56:04;;;;;;;1.50;0.90;;;;;;;;;;5053823;28;20234;-75
2021/03/19 12:58:30;;;;;;;1.10;0.90;;;;;;;;;;5053755;28;20732;-74
2021/03/19 13:00:56;;;;;;;2.87;1.30;;;;;;;;;;5070396;28;20252;-78
2021/03/19 13:03:22;;;;;;;1.53;1.00;;;;;;;;;;5067823;28;20207;-75
2021/03/19 13:05:48;;;;;;;2.70;1.20;;;;;;;;;;5070607;28;20219;-75
2021/03/19 13:08:14;;;;;;;1.47;0.90;;;;;;;;;;5070082;28;20636;-75
2021/03/19 13:10:40;;;;;;;1.27;1.00;;;;;;;;;;5070563;28;20635;-75
2021/03/19 13:13:07;;;;;;;2.33;1.07;;;;;;;;;;5036524;28;20214;-74
2021/03/19 13:15:34;;;;;;;1.10;0.87;;;;;;;;;;5044698;28;20216;-75
2021/03/19 13:18:00;;;;;;;1.37;0.80;;;;;;;;;;5033618;28;20195;-76
2021/03/19 13:20:26;;;;;;;1.47;1.00;;;;;;;;;;5050090;28;20583;-74
2021/03/19 13:22:52;;;;;;;0.80;0.77;;;;;;;;;;5033555;28;20605;-74
2021/03/19 13:25:23;;;;;;;1.20;0.90;;;;;;;;;;5050206;28;20166;-76
2021/03/19 13:27:49;;;;;;;1.23;0.80;;;;;;;;;;5042907;28;20203;-74
2021/03/19 13:30:15;;;;;;;1.20;0.80;;;;;;;;;;5045190;28;20580;-74
2021/03/19 13:32:42;;;;;;;1.23;0.97;;;;;;;;;;5072006;28;20558;-75
2021/03/19 13:35:08;;;;;;;2.23;0.90;;;;;;;;;;5073684;28;20180;-75
2021/03/19 13:37:34;;;;;;;0.90;0.77;;;;;;;;;;5073522;28;20204;-76
2021/03/19 13:40:00;;;;;;;2.40;1.13;;;;;;;;;;5074582;28;20196;-80
2021/03/19 13:42:26;;;;;;;0.90;0.70;;;;;;;;;;5059962;28;20248;-76
2021/03/19 13:44:52;;;;;;;2.03;1.10;;;;;;;;;;5053617;28;20182;-75
2021/03/19 13:47:18;;;;;;;1.97;1.20;;;;;;;;;;5053048;28;20188;-76
2021/03/19 13:49:44;;;;;;;1.37;1.07;;;;;;;;;;5053574;28;20304;-75
2021/03/19 13:52:10;;;;;;;2.03;1.10;;;;;;;;;;5054371;28;20178;-75
2021/03/19 13:54:36;;;;;;;1.13;0.93;;;;;;;;;;5055220;28;20277;-76
2021/03/19 13:57:03;;;;;;;1.10;1.00;;;;;;;;;;5056298;28;20662;-76
2021/03/19 13:59:29;;;;;;;1.40;1.10;;;;;;;;;;5057072;28;20701;-76
2021/03/19 14:01:55;;;;;;;1.37;0.90;;;;;;;;;;5056837;28;20241;-76
2021/03/19 14:04:21;;;;;;;1.77;1.10;;;;;;;;;;5073608;28;20170;-76
2021/03/19 14:06:48;;;;;;;1.57;1.03;;;;;;;;;;5075154;28;20187;-74
2021/03/19 14:09:14;;;;;;;1.87;1.23;;;;;;;;;;5073746;28;20201;-74
2021/03/19 14:11:40;;;;;;;1.73;1.37;;;;;;;;;;5073914;28;20263;-74
2021/03/19 14:14:06;;;;;;;1.80;1.27;;;;;;;;;;5073789;28;20239;-74
2021/03/19 14:16:32;;;;;;;2.47;1.23;;;;;;;;;;5057146;28;20185;-75
2021/03/19 14:18:58;;;;;;;3.53;1.40;;;;;;;;;;5073408;28;20225;-75
2021/03/19 14:21:24;;;;;;;1.60;1.30;;;;;;;;;;5073628;28;20207;-75
2021/03/19 14:23:50;;;;;;;2.87;1.63;;;;;;;;;;5075073;28;20182;-76
2021/03/19 14:26:16;;;;;;;2.23;1.30;;;;;;;;;;5073347;28;20179;-75
2021/03/19 14:28:43;;;;;;;2.80;1.50;;;;;;;;;;5073292;28;20219;-76
2021/03/19 14:31:09;;;;;;;3.90;1.60;;;;;;;;;;5056994;28;20185;-75
2021/03/19 14:33:35;;;;;;;1.87;1.47;;;;;;;;;;5072947;28;20665;-75
2021/03/19 14:36:01;;;;;;;2.23;1.27;;;;;;;;;;5072010;28;20267;-75
2021/03/19 14:38:27;;;;;;;2.47;1.40;;;;;;;;;;5056224;28;20661;-75
2021/03/19 14:40:54;;;;;;;2.80;2.10;;;;;;;;;;5056525;28;20618;-76
2021/03/19 14:43:20;;;;;;;4.13;2.53;;;;;;;;;;5055838;28;20178;-75
2021/03/19 14:45:46;;;;;;;3.40;1.80;;;;;;;;;;5056533;28;20177;-75
2021/03/19 14:48:17;;;;;;;2.60;1.20;;;;;;;;;;5073058;28;20178;-75
2021/03/19 14:50:43;;;;;;;1.50;1.30;;;;;;;;;;5072760;28;20193;-75